createdAt,value
2017-11-25T00:00:35.665Z,6.30
2017-11-25T00:03:03.168Z,6.30
2017-11-25T00:05:30.725Z,6.30
2017-11-25T00:07:58.384Z,6.40
2017-11-25T00:10:25.994Z,6.40
2017-11-25T00:12:54.464Z,6.40
2017-11-25T00:15:21.974Z,6.40
2017-11-25T00:17:49.480Z,6.40
2017-11-25T00:20:16.979Z,6.40
2017-11-25T00:22:44.482Z,6.30
2017-11-25T00:25:12.241Z,6.30
2017-11-25T00:27:39.737Z,6.30
2017-11-25T00:30:07.285Z,6.30
2017-11-25T00:32:34.805Z,6.40
2017-11-25T00:35:02.313Z,6.40
2017-11-25T00:37:29.823Z,6.30
2017-11-25T00:39:57.311Z,6.30
2017-11-25T00:42:25.855Z,6.40
2017-11-25T00:44:53.349Z,6.40
2017-11-25T00:47:21.064Z,6.50
2017-11-25T00:49:48.560Z,6.50
2017-11-25T00:52:16.075Z,6.50
2017-11-25T00:54:43.570Z,6.50
2017-11-25T00:57:11.081Z,6.50
2017-11-25T00:59:39.529Z,6.40
2017-11-25T01:02:07.048Z,6.40
2017-11-25T01:04:34.541Z,6.40
2017-11-25T01:07:02.249Z,6.40
2017-11-25T01:09:29.744Z,6.40
2017-11-25T01:11:57.444Z,6.30
2017-11-25T01:14:25.238Z,6.30
2017-11-25T01:16:52.737Z,6.30
2017-11-25T01:19:20.453Z,6.40
2017-11-25T01:21:47.961Z,6.40
2017-11-25T01:24:15.460Z,6.40
2017-11-25T01:26:43.172Z,6.40
2017-11-25T01:29:10.681Z,6.40
2017-11-25T01:31:38.229Z,6.40
2017-11-25T01:34:05.726Z,6.40
2017-11-25T01:36:33.243Z,6.40
2017-11-25T01:39:00.752Z,6.40
2017-11-25T01:41:28.258Z,6.40
2017-11-25T01:43:55.781Z,6.50
2017-11-25T01:46:23.409Z,6.40
2017-11-25T01:48:50.909Z,6.30
2017-11-25T01:51:18.425Z,6.20
2017-11-25T01:53:46.695Z,6.20
2017-11-25T01:56:14.184Z,6.10
2017-11-25T01:58:41.887Z,6.00
2017-11-25T02:01:09.673Z,6.00
2017-11-25T02:03:37.355Z,6.10
2017-11-25T02:06:04.857Z,6.10
2017-11-25T02:08:32.361Z,6.10
2017-11-25T02:11:00.121Z,6.00
2017-11-25T02:13:27.630Z,6.10
2017-11-25T02:15:55.133Z,6.10
2017-11-25T02:18:22.700Z,6.10
2017-11-25T02:20:50.250Z,6.20
2017-11-25T02:23:17.750Z,6.20
2017-11-25T02:25:45.269Z,6.10
2017-11-25T02:28:12.938Z,6.00
2017-11-25T02:30:40.441Z,6.00
2017-11-25T02:33:08.141Z,6.00
2017-11-25T02:35:35.654Z,6.10
2017-11-25T02:38:03.213Z,6.10
2017-11-25T02:40:30.730Z,6.10
2017-11-25T02:42:59.057Z,6.10
2017-11-25T02:45:26.572Z,6.10
2017-11-25T02:47:54.069Z,6.10
2017-11-25T02:50:21.576Z,6.00
2017-11-25T02:52:49.079Z,6.00
2017-11-25T02:55:16.785Z,6.10
2017-11-25T02:57:44.281Z,6.10
2017-11-25T03:00:11.885Z,6.10
2017-11-25T03:02:39.385Z,6.00
2017-11-25T03:05:06.892Z,6.10
2017-11-25T03:07:34.403Z,6.10
2017-11-25T03:10:01.925Z,6.10
2017-11-25T03:12:29.772Z,6.00
2017-11-25T03:14:57.361Z,6.10
2017-11-25T03:17:24.874Z,6.10
2017-11-25T03:19:52.581Z,6.10
2017-11-25T03:22:20.093Z,6.00
2017-11-25T03:24:47.765Z,6.00
2017-11-25T03:27:15.280Z,6.00
2017-11-25T03:29:42.789Z,6.00
2017-11-25T03:32:10.297Z,6.10
2017-11-25T03:34:37.893Z,6.10
2017-11-25T03:37:05.388Z,6.10
2017-11-25T03:39:32.887Z,6.10
2017-11-25T03:42:00.573Z,6.10
2017-11-25T03:44:28.191Z,6.10
2017-11-25T03:46:55.798Z,6.10
2017-11-25T03:49:23.294Z,6.10
2017-11-25T03:51:50.799Z,6.20
2017-11-25T03:54:18.302Z,6.10
2017-11-25T03:56:45.821Z,6.10
2017-11-25T03:59:13.316Z,6.10
2017-11-25T04:01:41.537Z,6.10
2017-11-25T04:04:09.032Z,6.10
2017-11-25T04:06:36.537Z,6.10
2017-11-25T04:09:04.050Z,6.10
2017-11-25T04:11:31.581Z,6.10
2017-11-25T04:13:59.097Z,6.20
2017-11-25T04:16:26.594Z,6.10
2017-11-25T04:18:54.613Z,6.10
2017-11-25T04:21:22.107Z,6.10
2017-11-25T04:23:49.824Z,6.10
2017-11-25T04:26:17.329Z,6.20
2017-11-25T04:28:44.825Z,6.20
2017-11-25T04:31:12.325Z,6.20
2017-11-25T04:33:39.952Z,6.20
2017-11-25T04:36:07.461Z,6.10
2017-11-25T04:38:35.141Z,6.10
2017-11-25T04:41:02.689Z,6.00
2017-11-25T04:43:30.392Z,6.00
2017-11-25T04:45:57.889Z,5.80
2017-11-25T04:48:25.400Z,5.60
2017-11-25T04:50:52.901Z,5.70
2017-11-25T04:53:20.499Z,5.70
2017-11-25T04:55:48.509Z,5.80
2017-11-25T04:58:16.017Z,5.90
2017-11-25T05:00:43.521Z,5.90
2017-11-25T05:03:11.045Z,5.90
2017-11-25T05:05:38.536Z,5.90
2017-11-25T05:08:06.044Z,6.00
2017-11-25T05:10:33.644Z,6.00
2017-11-25T05:13:01.145Z,6.00
2017-11-25T05:15:28.869Z,6.00
2017-11-25T05:17:56.370Z,5.80
2017-11-25T05:20:23.877Z,5.70
2017-11-25T05:22:51.497Z,5.70
2017-11-25T05:25:19.008Z,5.70
2017-11-25T05:27:46.508Z,5.80
2017-11-25T05:30:14.025Z,5.70
2017-11-25T05:32:41.557Z,5.70
2017-11-25T05:35:09.134Z,5.70
2017-11-25T05:37:36.629Z,5.70
2017-11-25T05:40:04.133Z,5.70
2017-11-25T05:42:31.644Z,5.80
2017-11-25T05:44:59.909Z,5.30
2017-11-25T05:47:27.413Z,5.80
2017-11-25T05:49:54.920Z,5.80
2017-11-25T05:52:22.442Z,5.80
2017-11-25T05:54:50.896Z,5.80
2017-11-25T05:57:18.693Z,5.80
2017-11-25T05:59:46.797Z,5.80
2017-11-25T06:02:14.542Z,5.80
2017-11-25T06:04:42.042Z,5.80
2017-11-25T06:07:09.557Z,5.90
2017-11-25T06:09:37.209Z,5.80
2017-11-25T06:12:04.829Z,5.80
2017-11-25T06:14:32.389Z,5.80
2017-11-25T06:16:59.901Z,5.80
2017-11-25T06:19:27.401Z,5.80
2017-11-25T06:21:54.954Z,5.80
2017-11-25T06:24:23.211Z,5.90
2017-11-25T06:26:50.716Z,5.90
2017-11-25T06:29:18.357Z,5.80
2017-11-25T06:31:45.886Z,5.70
2017-11-25T06:34:13.370Z,5.80
2017-11-25T06:36:41.065Z,5.80
2017-11-25T06:39:08.769Z,5.80
2017-11-25T06:41:36.281Z,5.70
2017-11-25T06:44:03.786Z,5.90
2017-11-25T06:46:31.493Z,5.80
2017-11-25T06:48:58.980Z,5.80
2017-11-25T06:51:27.608Z,5.80
2017-11-25T06:53:55.108Z,5.70
2017-11-25T06:56:22.617Z,5.80
2017-11-25T06:58:50.117Z,5.90
2017-11-25T07:01:17.785Z,5.90
2017-11-25T07:03:45.285Z,5.90
2017-11-25T07:06:13.566Z,5.90
2017-11-25T07:08:41.065Z,5.90
2017-11-25T07:11:08.564Z,5.80
2017-11-25T07:13:36.072Z,5.80
2017-11-25T07:16:03.785Z,5.80
2017-11-25T07:18:31.313Z,5.80
2017-11-25T07:20:58.840Z,5.80
2017-11-25T07:23:27.145Z,5.80
2017-11-25T07:25:54.641Z,5.80
2017-11-25T07:28:23.183Z,5.90
2017-11-25T07:30:50.677Z,5.80
2017-11-25T07:33:18.189Z,5.70
2017-11-25T07:35:45.681Z,5.80
2017-11-25T07:38:13.316Z,5.90
2017-11-25T07:40:41.079Z,6.00
2017-11-25T07:43:08.614Z,6.00
2017-11-25T07:45:36.262Z,6.00
2017-11-25T07:48:04.269Z,5.90
2017-11-25T07:50:31.771Z,5.90
2017-11-25T07:52:59.303Z,5.90
2017-11-25T07:55:26.920Z,5.90
2017-11-25T07:57:54.418Z,5.90
2017-11-25T08:00:21.925Z,5.80
2017-11-25T08:02:49.722Z,5.70
2017-11-25T08:05:18.686Z,5.70
2017-11-25T08:07:46.204Z,5.70
2017-11-25T08:10:13.809Z,5.80
2017-11-25T08:12:41.390Z,5.80
2017-11-25T08:15:08.889Z,5.90
2017-11-25T08:17:36.397Z,6.00
2017-11-25T08:20:04.672Z,5.70
2017-11-25T08:22:32.169Z,5.70
2017-11-25T08:24:59.679Z,5.70
2017-11-25T08:27:27.172Z,5.70
2017-11-25T08:29:55.038Z,5.60
2017-11-25T08:32:22.540Z,5.30
2017-11-25T08:34:50.051Z,5.40
2017-11-25T08:37:17.545Z,5.50
2017-11-25T08:39:45.230Z,5.60
2017-11-25T08:42:12.736Z,5.50
2017-11-25T08:44:40.228Z,5.50
2017-11-25T08:47:07.916Z,5.60
2017-11-25T08:49:35.393Z,5.60
2017-11-25T08:52:02.894Z,5.80
2017-11-25T08:54:31.220Z,5.70
2017-11-25T08:56:58.729Z,5.70
2017-11-25T08:59:26.400Z,5.70
2017-11-25T09:01:53.904Z,5.80
2017-11-25T09:04:21.401Z,5.80
2017-11-25T09:06:48.901Z,5.80
2017-11-25T09:09:16.397Z,5.90
2017-11-25T09:11:43.907Z,5.90
2017-11-25T09:14:12.180Z,5.90
2017-11-25T09:16:39.797Z,5.90
2017-11-25T09:19:07.320Z,5.90
2017-11-25T09:21:35.170Z,5.60
2017-11-25T09:24:02.854Z,5.60
2017-11-25T09:26:30.357Z,5.70
2017-11-25T09:28:58.689Z,5.50
2017-11-25T09:31:26.454Z,5.60
2017-11-25T09:33:53.953Z,5.40
2017-11-25T09:36:21.448Z,5.50
2017-11-25T09:38:48.963Z,5.50
2017-11-25T09:41:17.858Z,5.60
2017-11-25T09:43:45.366Z,5.60
2017-11-25T09:46:12.993Z,5.70
2017-11-25T09:48:40.499Z,5.80
2017-11-25T09:51:08.252Z,5.80
2017-11-25T09:53:36.049Z,5.80
2017-11-25T09:56:03.546Z,5.60
2017-11-25T09:58:31.045Z,5.60
2017-11-25T10:00:58.541Z,5.70
2017-11-25T10:03:26.275Z,5.50
2017-11-25T10:05:53.772Z,5.40
2017-11-25T10:08:21.276Z,5.40
2017-11-25T10:10:48.798Z,5.40
2017-11-25T10:13:16.311Z,5.30
2017-11-25T10:15:43.941Z,5.30
2017-11-25T10:18:11.449Z,5.40
2017-11-25T10:20:38.940Z,5.40
2017-11-25T10:23:06.506Z,5.40
2017-11-25T10:25:34.007Z,5.50
2017-11-25T10:28:02.365Z,5.40
2017-11-25T10:30:29.879Z,5.40
2017-11-25T10:32:57.465Z,5.20
2017-11-25T10:35:24.991Z,5.10
2017-11-25T10:37:52.661Z,4.90
2017-11-25T10:40:20.190Z,4.80
2017-11-25T10:42:48.635Z,5.00
2017-11-25T10:45:16.126Z,5.00
2017-11-25T10:47:44.386Z,5.10
2017-11-25T10:50:11.886Z,5.00
2017-11-25T10:52:39.389Z,5.00
2017-11-25T10:55:06.946Z,5.20
2017-11-25T10:57:34.446Z,5.30
2017-11-25T11:00:01.966Z,5.30
2017-11-25T11:02:29.473Z,5.20
2017-11-25T11:04:56.974Z,5.30
2017-11-25T11:07:24.476Z,5.30
2017-11-25T11:09:52.077Z,5.20
2017-11-25T11:12:19.588Z,5.20
2017-11-25T11:14:47.299Z,5.10
2017-11-25T11:17:14.797Z,5.20
2017-11-25T11:19:42.342Z,5.30
2017-11-25T11:22:09.856Z,5.40
2017-11-25T11:24:37.341Z,5.40
2017-11-25T11:27:05.617Z,5.50
2017-11-25T11:29:33.278Z,5.50
2017-11-25T11:32:02.328Z,5.50
2017-11-25T11:34:30.033Z,5.50
2017-11-25T11:36:57.949Z,5.50
2017-11-25T11:39:25.607Z,5.50
2017-11-25T11:41:53.352Z,5.50
2017-11-25T11:44:21.048Z,5.50
2017-11-25T11:46:48.556Z,5.60
2017-11-25T11:49:16.199Z,5.70
2017-11-25T11:51:43.701Z,5.70
2017-11-25T11:54:11.205Z,5.80
2017-11-25T11:56:38.705Z,5.80
2017-11-25T11:59:06.203Z,5.90
2017-11-25T12:01:33.713Z,6.00
2017-11-25T12:04:01.214Z,5.90
2017-11-25T12:06:28.804Z,5.80
2017-11-25T12:08:56.313Z,5.90
2017-11-25T12:11:23.825Z,5.90
2017-11-25T12:13:51.381Z,6.00
2017-11-25T12:16:18.885Z,5.90
2017-11-25T12:18:46.397Z,5.90
2017-11-25T12:21:13.894Z,6.00
2017-11-25T12:23:41.606Z,5.90
2017-11-25T12:26:09.100Z,6.00
2017-11-25T12:28:36.825Z,6.10
2017-11-25T12:31:04.320Z,6.20
2017-11-25T12:33:31.838Z,6.30
2017-11-25T12:35:59.336Z,6.30
2017-11-25T12:38:27.610Z,6.30
2017-11-25T12:40:55.105Z,6.40
2017-11-25T12:43:22.605Z,6.20
2017-11-25T12:45:50.205Z,6.20
2017-11-25T12:48:17.735Z,6.20
2017-11-25T12:50:45.460Z,6.10
2017-11-25T12:53:13.234Z,6.20
2017-11-25T12:55:41.000Z,6.30
2017-11-25T12:58:08.494Z,6.30
2017-11-25T13:00:35.997Z,6.20
2017-11-25T13:03:03.525Z,6.30
2017-11-25T13:05:31.106Z,6.20
2017-11-25T13:07:58.601Z,6.10
2017-11-25T13:10:26.113Z,5.90
2017-11-25T13:12:53.813Z,5.80
2017-11-25T13:15:21.309Z,5.90
2017-11-25T13:17:48.999Z,6.00
2017-11-25T13:20:16.497Z,5.90
2017-11-25T13:22:44.010Z,5.90
2017-11-25T13:25:11.702Z,5.80
2017-11-25T13:27:39.460Z,5.90
2017-11-25T13:30:06.970Z,5.70
2017-11-25T13:32:34.466Z,5.70
2017-11-25T13:35:02.138Z,5.60
2017-11-25T13:37:29.641Z,5.60
2017-11-25T13:39:57.162Z,5.70
2017-11-25T13:42:24.836Z,5.70
2017-11-25T13:44:52.325Z,5.60
2017-11-25T13:47:19.871Z,5.70
2017-11-25T13:49:48.419Z,5.70
2017-11-25T13:52:16.433Z,5.70
2017-11-25T13:54:43.989Z,5.70
2017-11-25T13:57:11.490Z,5.80
2017-11-25T13:59:39.005Z,5.70
2017-11-25T14:02:07.538Z,5.60
2017-11-25T14:04:35.041Z,5.60
2017-11-25T14:07:02.541Z,5.60
2017-11-25T14:09:30.048Z,5.60
2017-11-25T14:11:57.685Z,5.70
2017-11-25T14:14:26.129Z,5.70
2017-11-25T14:16:53.820Z,5.60
2017-11-25T14:19:21.533Z,5.60
2017-11-25T14:21:49.057Z,5.60
2017-11-25T14:24:17.170Z,5.60
2017-11-25T14:26:44.785Z,5.50
2017-11-25T14:29:12.298Z,5.50
2017-11-25T14:31:39.793Z,5.50
2017-11-25T14:34:07.324Z,5.50
2017-11-25T14:36:34.964Z,5.60
2017-11-25T14:39:02.486Z,5.60
2017-11-25T14:41:30.000Z,5.60
2017-11-25T14:43:57.513Z,5.60
2017-11-25T14:46:25.777Z,5.60
2017-11-25T14:48:53.285Z,5.60
2017-11-25T14:51:20.793Z,5.60
2017-11-25T14:53:48.310Z,5.60
2017-11-25T14:56:16.841Z,5.60
2017-11-25T14:58:44.541Z,5.60
2017-11-25T15:01:12.329Z,5.60
2017-11-25T15:03:39.842Z,5.70
2017-11-25T15:06:07.547Z,5.70
2017-11-25T15:08:35.313Z,5.70
2017-11-25T15:11:03.037Z,5.60
2017-11-25T15:13:30.607Z,5.60
2017-11-25T15:15:58.115Z,5.60
2017-11-25T15:18:25.729Z,5.70
2017-11-25T15:20:53.229Z,5.70
2017-11-25T15:23:20.743Z,5.80
2017-11-25T15:25:48.246Z,5.80
2017-11-25T15:28:15.759Z,5.80
2017-11-25T15:30:43.645Z,5.80
2017-11-25T15:33:11.149Z,5.70
2017-11-25T15:35:38.678Z,5.70
2017-11-25T15:38:06.334Z,5.80
2017-11-25T15:40:33.912Z,5.80
2017-11-25T15:43:01.424Z,5.70
2017-11-25T15:45:28.917Z,5.80
2017-11-25T15:47:56.420Z,5.80
2017-11-25T15:50:24.221Z,5.70
2017-11-25T15:52:51.988Z,5.70
2017-11-25T15:55:19.529Z,5.70
2017-11-25T15:57:47.016Z,5.70
2017-11-25T16:00:15.581Z,5.60
2017-11-25T16:02:43.085Z,5.60
2017-11-25T16:05:10.779Z,5.70
2017-11-25T16:07:38.269Z,5.60
2017-11-25T16:10:06.058Z,5.60
2017-11-25T16:12:33.557Z,5.60
2017-11-25T16:15:01.256Z,5.50
2017-11-25T16:17:29.042Z,5.40
2017-11-25T16:19:56.557Z,5.50
2017-11-25T16:22:24.053Z,5.50
2017-11-25T16:24:51.604Z,5.50
2017-11-25T16:27:19.137Z,5.50
2017-11-25T16:29:46.636Z,5.40
2017-11-25T16:32:14.357Z,5.40
2017-11-25T16:34:41.875Z,5.40
2017-11-25T16:37:09.385Z,5.40
2017-11-25T16:39:36.893Z,5.40
2017-11-25T16:42:04.391Z,5.40
2017-11-25T16:44:31.890Z,5.40
2017-11-25T16:46:59.417Z,5.40
2017-11-25T16:49:26.944Z,5.40
2017-11-25T16:51:54.601Z,5.50
2017-11-25T16:54:22.391Z,5.40
2017-11-25T16:56:49.904Z,5.30
2017-11-25T16:59:17.558Z,5.30
2017-11-25T17:01:45.067Z,5.30
2017-11-25T17:04:13.399Z,5.30
2017-11-25T17:06:40.913Z,5.30
2017-11-25T17:09:08.405Z,5.30
2017-11-25T17:11:36.121Z,5.30
2017-11-25T17:14:03.624Z,5.20
2017-11-25T17:16:31.328Z,5.20
2017-11-25T17:18:58.839Z,5.20
2017-11-25T17:21:26.358Z,5.20
2017-11-25T17:23:54.013Z,5.20
2017-11-25T17:26:21.783Z,5.10
2017-11-25T17:28:49.286Z,5.10
2017-11-25T17:31:16.959Z,5.10
2017-11-25T17:33:44.790Z,5.10
2017-11-25T17:36:12.300Z,5.00
2017-11-25T17:38:39.999Z,5.10
2017-11-25T17:41:07.749Z,5.10
2017-11-25T17:43:35.251Z,5.00
2017-11-25T17:46:02.965Z,5.00
2017-11-25T17:48:30.468Z,5.00
2017-11-25T17:50:57.970Z,4.90
2017-11-25T17:53:25.465Z,4.90
2017-11-25T17:55:52.961Z,4.80
2017-11-25T17:58:20.474Z,4.80
2017-11-25T18:00:47.977Z,4.70
2017-11-25T18:03:15.795Z,4.90
2017-11-25T18:05:43.297Z,4.90
2017-11-25T18:08:10.961Z,4.80
2017-11-25T18:10:38.460Z,4.70
2017-11-25T18:13:05.952Z,4.70
2017-11-25T18:15:33.673Z,4.80
2017-11-25T18:18:01.443Z,4.70
2017-11-25T18:20:28.940Z,4.70
2017-11-25T18:22:56.437Z,4.80
2017-11-25T18:25:24.130Z,4.80
2017-11-25T18:27:51.618Z,4.80
2017-11-25T18:30:19.830Z,4.80
2017-11-25T18:32:47.397Z,4.60
2017-11-25T18:35:14.905Z,4.70
2017-11-25T18:37:42.582Z,4.70
2017-11-25T18:40:10.085Z,4.70
2017-11-25T18:42:37.576Z,4.70
2017-11-25T18:45:05.090Z,4.70
2017-11-25T18:47:32.596Z,4.60
2017-11-25T18:50:01.130Z,4.70
2017-11-25T18:52:28.629Z,4.70
2017-11-25T18:54:56.245Z,4.60
2017-11-25T18:57:23.821Z,4.70
2017-11-25T18:59:51.569Z,4.60
2017-11-25T19:02:19.078Z,4.70
2017-11-25T19:04:46.572Z,4.80
2017-11-25T19:07:14.091Z,4.70
2017-11-25T19:09:42.341Z,4.70
2017-11-25T19:12:09.861Z,4.70
2017-11-25T19:14:37.353Z,4.70
2017-11-25T19:17:04.863Z,4.60
2017-11-25T19:19:32.360Z,4.60
2017-11-25T19:21:59.908Z,4.60
2017-11-25T19:24:27.678Z,4.60
2017-11-25T19:26:55.182Z,4.60
2017-11-25T19:29:22.892Z,4.50
2017-11-25T19:31:50.392Z,4.50
2017-11-25T19:34:17.902Z,4.40
2017-11-25T19:36:46.130Z,4.40
2017-11-25T19:39:13.633Z,4.40
2017-11-25T19:41:41.128Z,4.40
2017-11-25T19:44:08.621Z,4.40
2017-11-25T19:46:36.239Z,4.40
2017-11-25T19:49:03.750Z,4.30
2017-11-25T19:51:31.369Z,4.30
2017-11-25T19:53:59.636Z,4.30
2017-11-25T19:56:27.892Z,4.30
2017-11-25T19:58:55.405Z,4.30
2017-11-25T20:01:22.920Z,4.10
2017-11-25T20:03:50.429Z,4.20
2017-11-25T20:06:18.353Z,4.30
2017-11-25T20:08:45.862Z,4.20
2017-11-25T20:11:13.697Z,4.30
2017-11-25T20:13:41.958Z,4.20
2017-11-25T20:16:09.476Z,4.20
2017-11-25T20:18:37.244Z,4.20
2017-11-25T20:21:04.765Z,4.10
2017-11-25T20:23:32.466Z,4.20
2017-11-25T20:25:59.965Z,4.10
2017-11-25T20:28:27.698Z,4.20
2017-11-25T20:30:55.461Z,4.10
2017-11-25T20:33:22.962Z,4.00
2017-11-25T20:35:50.481Z,4.00
2017-11-25T20:38:18.053Z,4.00
2017-11-25T20:40:45.555Z,3.90
2017-11-25T20:43:13.049Z,3.90
2017-11-25T20:45:40.566Z,3.90
2017-11-25T20:48:08.062Z,3.90
2017-11-25T20:50:35.709Z,4.00
2017-11-25T20:53:04.038Z,3.90
2017-11-25T20:55:31.640Z,3.90
2017-11-25T20:57:59.146Z,4.00
2017-11-25T21:00:26.676Z,3.90
2017-11-25T21:02:54.225Z,3.90
2017-11-25T21:05:21.981Z,3.90
2017-11-25T21:07:49.482Z,3.80
2017-11-25T21:10:17.259Z,3.80
2017-11-25T21:12:44.911Z,3.80
2017-11-25T21:15:12.441Z,3.80
2017-11-25T21:17:39.936Z,3.80
2017-11-25T21:20:07.486Z,3.80
2017-11-25T21:22:35.753Z,3.80
2017-11-25T21:25:03.248Z,3.80
2017-11-25T21:27:30.748Z,3.80
2017-11-25T21:29:58.578Z,3.80
2017-11-25T21:32:26.168Z,3.80
2017-11-25T21:34:53.678Z,3.90
2017-11-25T21:37:21.352Z,3.70
2017-11-25T21:39:48.860Z,3.70
2017-11-25T21:42:16.368Z,3.60
2017-11-25T21:44:44.061Z,3.70
2017-11-25T21:47:11.572Z,3.80
2017-11-25T21:49:39.270Z,3.80
2017-11-25T21:52:06.795Z,3.70
2017-11-25T21:54:35.117Z,3.70
2017-11-25T21:57:02.657Z,3.80
2017-11-25T21:59:30.157Z,3.80
2017-11-25T22:01:57.683Z,3.70
2017-11-25T22:04:25.185Z,3.60
2017-11-25T22:06:52.725Z,3.60
2017-11-25T22:09:20.233Z,3.60
2017-11-25T22:11:47.917Z,3.60
2017-11-25T22:14:15.734Z,3.60
2017-11-25T22:16:43.461Z,3.60
2017-11-25T22:19:10.974Z,3.60
2017-11-25T22:21:38.460Z,3.60
2017-11-25T22:24:05.967Z,3.60
2017-11-25T22:26:34.277Z,3.60
2017-11-25T22:29:01.937Z,3.60
2017-11-25T22:31:29.454Z,3.60
2017-11-25T22:33:56.948Z,3.60
2017-11-25T22:36:24.453Z,3.60
2017-11-25T22:38:52.093Z,3.60
2017-11-25T22:41:20.125Z,4.30
2017-11-25T22:43:47.627Z,5.40
2017-11-25T22:46:15.148Z,5.20
2017-11-25T22:48:42.661Z,4.50
2017-11-25T22:51:10.249Z,4.10
2017-11-25T22:53:37.767Z,3.90
2017-11-25T22:56:05.489Z,3.80
2017-11-25T22:58:32.976Z,3.70
2017-11-25T23:01:00.480Z,3.70
2017-11-25T23:03:27.981Z,3.60
2017-11-25T23:06:01.097Z,3.60
2017-11-25T23:08:28.608Z,3.60
2017-11-25T23:10:56.694Z,3.60
2017-11-25T23:13:24.460Z,3.60
2017-11-25T23:15:51.969Z,3.60
2017-11-25T23:18:19.494Z,3.50
2017-11-25T23:20:47.005Z,3.50
2017-11-25T23:23:14.497Z,3.40
2017-11-25T23:25:42.054Z,3.40
2017-11-25T23:28:09.824Z,3.40
2017-11-25T23:30:37.529Z,3.40
2017-11-25T23:33:05.050Z,3.30
2017-11-25T23:35:32.550Z,3.20
2017-11-25T23:38:00.085Z,3.20
2017-11-25T23:40:28.637Z,3.20
2017-11-25T23:42:56.128Z,3.20
2017-11-25T23:45:23.849Z,3.20
2017-11-25T23:47:53.198Z,3.20
2017-11-25T23:50:20.740Z,3.20
2017-11-25T23:52:48.226Z,3.20
2017-11-25T23:55:16.489Z,3.20
2017-11-25T23:57:44.171Z,3.20
